Time;durP1;ratioP1;P1;durP2;ratioP2;P2;SDS_P1;SDS_P2;PMS_P1;PMS_P2;Temp;Humidity;BMP_temperature;BMP_pressure;BME280_temperature;BME280_humidity;BME280_pressure;Samples;Min_cycle;Max_cycle;Signal;HPM_P1;HPM_P2
2023/01/30 00:01:41;;;;;;;17.87;12.47;;;-0.60;99.90;;;;;;5068062;28;20470;-80
2023/01/30 00:04:11;;;;;;;19.65;12.60;;;-0.60;99.90;;;;;;5057578;28;20798;-80
2023/01/30 00:06:45;;;;;;;18.35;9.50;;;-0.50;99.90;;;;;;5055096;28;20367;-80
2023/01/30 00:09:14;;;;;;;18.60;12.93;;;-0.50;99.90;;;;;;5050036;28;20201;-80
2023/01/30 00:11:42;;;;;;;24.45;13.63;;;-0.50;99.90;;;;;;5051885;28;20217;-80
2023/01/30 00:14:09;;;;;;;18.92;12.95;;;-0.50;99.90;;;;;;5077050;28;20285;-80
2023/01/30 00:16:37;;;;;;;19.88;11.63;;;-0.60;99.90;;;;;;5063712;28;20337;-80
2023/01/30 00:19:03;;;;;;;19.55;12.75;;;-0.60;99.90;;;;;;5066533;28;20633;-80
2023/01/30 00:21:30;;;;;;;20.00;12.80;;;-0.60;99.90;;;;;;5062020;28;20313;-80
2023/01/30 00:23:58;;;;;;;18.87;12.57;;;-0.70;99.90;;;;;;5066069;28;20858;-79
2023/01/30 00:26:27;;;;;;;11.67;10.03;;;-0.70;99.90;;;;;;5052013;28;20847;-80
2023/01/30 00:28:55;;;;;;;18.92;12.13;;;-0.60;99.90;;;;;;5069981;28;20516;-80
2023/01/30 00:31:22;;;;;;;21.93;13.07;;;-0.60;99.90;;;;;;5065445;28;20198;-81
2023/01/30 00:33:49;;;;;;;24.35;14.30;;;-0.60;99.90;;;;;;5059948;28;20947;-80
2023/01/30 00:36:16;;;;;;;19.47;11.80;;;-0.60;99.90;;;;;;5053642;28;20233;-80
2023/01/30 00:38:43;;;;;;;18.95;12.05;;;-0.60;99.90;;;;;;5053974;28;20489;-80
2023/01/30 00:41:12;;;;;;;17.45;10.40;;;-0.70;99.90;;;;;;5059386;28;20234;-80
2023/01/30 00:49:13;;;;;;;21.83;12.07;;;-0.70;99.90;;;;;;5054026;28;20596;-80
2023/01/30 00:51:40;;;;;;;17.42;10.35;;;-0.70;99.90;;;;;;5064788;28;20510;-80
2023/01/30 00:54:07;;;;;;;20.83;11.87;;;-0.60;99.90;;;;;;5082252;28;20293;-80
2023/01/30 00:56:36;;;;;;;20.65;11.70;;;-0.60;99.90;;;;;;5062849;28;20471;-80
2023/01/30 00:59:04;;;;;;;11.00;9.47;;;-0.60;99.90;;;;;;5082825;28;20262;-80
2023/01/30 01:01:32;;;;;;;18.35;12.18;;;-0.70;99.90;;;;;;5056351;28;20550;-80
2023/01/30 01:04:01;;;;;;;20.67;11.55;;;-0.70;99.90;;;;;;5077135;28;20294;-80
2023/01/30 01:06:28;;;;;;;20.00;11.27;;;-0.70;99.90;;;;;;5056874;28;20210;-80
2023/01/30 01:08:58;;;;;;;18.97;11.63;;;-0.70;99.90;;;;;;5062364;28;20452;-80
2023/01/30 01:11:26;;;;;;;16.10;11.10;;;-0.70;99.90;;;;;;5065062;28;20452;-80
2023/01/30 01:13:54;;;;;;;14.97;9.80;;;-0.80;99.90;;;;;;5055384;28;20469;-80
2023/01/30 01:16:21;;;;;;;17.05;9.90;;;-0.80;99.90;;;;;;5058855;28;20782;-80
2023/01/30 01:18:49;;;;;;;17.00;10.50;;;-0.80;99.90;;;;;;5057642;28;20561;-80
2023/01/30 01:21:17;;;;;;;18.80;12.57;;;-0.70;99.90;;;;;;5061848;28;20236;-80
2023/01/30 01:23:46;;;;;;;19.52;10.68;;;-0.70;99.90;;;;;;5071701;28;20564;-80
2023/01/30 01:26:13;;;;;;;21.93;11.93;;;-0.70;99.90;;;;;;5070830;28;20319;-80
2023/01/30 01:28:40;;;;;;;20.55;11.10;;;-0.70;99.90;;;;;;5064124;28;20496;-80
2023/01/30 01:31:14;;;;;;;19.55;12.45;;;-0.70;99.90;;;;;;5072573;28;20632;-80
2023/01/30 01:33:41;;;;;;;15.90;10.63;;;-0.70;99.90;;;;;;5056399;28;20242;-80
2023/01/30 01:36:10;;;;;;;19.02;11.90;;;-0.70;99.90;;;;;;5062570;28;20222;-80
2023/01/30 01:38:37;;;;;;;16.58;12.02;;;-0.70;99.90;;;;;;5056137;28;20268;-80
2023/01/30 01:41:16;;;;;;;20.02;11.75;;;-0.60;99.90;;;;;;5069068;28;20198;-80
2023/01/30 01:44:01;;;;;;;20.55;12.38;;;-0.70;99.90;;;;;;5061923;28;20229;-79
2023/01/30 01:46:32;;;;;;;17.23;10.50;;;-0.70;99.90;;;;;;5062822;28;20292;-79
2023/01/30 01:49:03;;;;;;;18.80;10.85;;;-0.70;99.90;;;;;;5049863;28;20640;-80
2023/01/30 01:51:36;;;;;;;17.77;12.73;;;-0.70;99.90;;;;;;5070751;28;20349;-80
2023/01/30 01:54:07;;;;;;;15.02;10.02;;;-0.70;99.90;;;;;;5069017;28;20307;-80
2023/01/30 01:56:35;;;;;;;14.73;10.25;;;-0.70;99.90;;;;;;5085747;28;20205;-80
2023/01/30 01:59:08;;;;;;;19.67;10.98;;;-0.60;99.90;;;;;;5063672;28;20635;-80
2023/01/30 02:01:35;;;;;;;13.68;9.23;;;-0.60;99.90;;;;;;5080992;28;20346;-80
2023/01/30 02:04:07;;;;;;;18.48;11.13;;;-0.60;99.90;;;;;;5064264;28;20614;-80
2023/01/30 02:06:38;;;;;;;13.10;9.30;;;-0.60;99.90;;;;;;5063192;28;20216;-80
2023/01/30 02:09:07;;;;;;;19.88;12.05;;;-0.60;99.90;;;;;;5055178;28;20252;-80
2023/01/30 02:11:40;;;;;;;17.08;9.95;;;-0.60;99.90;;;;;;5073552;28;20233;-80
2023/01/30 02:14:08;;;;;;;23.42;12.30;;;-0.60;99.90;;;;;;5060806;28;20225;-80
2023/01/30 02:16:36;;;;;;;15.00;10.25;;;-0.60;99.90;;;;;;5049902;28;20202;-80
2023/01/30 02:19:11;;;;;;;13.43;9.73;;;-0.60;99.90;;;;;;5067182;28;20287;-80
2023/01/30 02:22:14;;;;;;;20.70;11.87;;;-0.60;99.90;;;;;;5065303;28;20219;-80
2023/01/30 02:25:18;;;;;;;21.30;10.88;;;-0.60;99.90;;;;;;5058395;28;20552;-80
2023/01/30 02:28:17;;;;;;;19.30;13.95;;;-0.60;99.90;;;;;;5070102;28;20260;-80
2023/01/30 02:31:03;;;;;;;15.80;10.43;;;-0.50;99.90;;;;;;5043095;28;20314;-80
2023/01/30 02:33:38;;;;;;;15.17;9.07;;;-0.60;99.90;;;;;;5058603;28;20276;-80
2023/01/30 02:36:15;;;;;;;14.73;10.23;;;-0.60;99.90;;;;;;5059416;28;20924;-80
2023/01/30 02:38:52;;;;;;;21.05;11.00;;;-0.70;99.90;;;;;;5054187;28;21012;-79
2023/01/30 02:41:26;;;;;;;20.73;13.20;;;-0.70;99.90;;;;;;5070210;28;20658;-81
2023/01/30 02:44:02;;;;;;;19.30;11.02;;;-0.90;99.90;;;;;;5059275;28;20939;-80
2023/01/30 02:46:37;;;;;;;17.50;10.63;;;-1.00;99.90;;;;;;5066919;28;20202;-80
2023/01/30 02:49:08;;;;;;;26.85;11.70;;;-0.90;99.90;;;;;;5071088;28;20653;-80
2023/01/30 02:51:37;;;;;;;16.00;10.45;;;-1.00;99.90;;;;;;5061882;28;20226;-79
2023/01/30 02:54:07;;;;;;;21.45;12.70;;;-1.00;99.90;;;;;;5060667;28;20650;-80
2023/01/30 02:56:45;;;;;;;20.45;11.88;;;-1.00;99.90;;;;;;5068452;28;20214;-79
2023/01/30 02:59:17;;;;;;;18.13;11.73;;;-1.00;99.90;;;;;;5055419;28;20211;-79
2023/01/30 03:02:07;;;;;;;21.92;10.40;;;-1.00;99.90;;;;;;5060106;28;20275;-80
2023/01/30 03:04:53;;;;;;;16.77;10.40;;;-0.90;99.90;;;;;;5051275;28;20230;-80
2023/01/30 03:07:29;;;;;;;19.70;10.40;;;-0.90;99.90;;;;;;5063690;28;20588;-79
2023/01/30 03:10:04;;;;;;;18.02;11.32;;;-0.90;99.90;;;;;;5061943;28;20225;-80
2023/01/30 03:12:42;;;;;;;20.17;11.60;;;-0.90;99.90;;;;;;5064940;28;20224;-80
2023/01/30 03:15:13;;;;;;;13.82;10.00;;;-0.90;99.90;;;;;;5051876;28;20233;-79
2023/01/30 03:17:46;;;;;;;14.80;10.38;;;-0.90;99.90;;;;;;5065548;28;20226;-79
2023/01/30 03:20:14;;;;;;;16.55;11.57;;;-0.90;99.90;;;;;;5055544;28;20245;-80
2023/01/30 03:22:43;;;;;;;18.60;11.82;;;-0.90;99.90;;;;;;5068356;28;20238;-80
2023/01/30 03:25:16;;;;;;;17.23;12.55;;;-0.90;99.90;;;;;;5067541;28;20303;-79
2023/01/30 03:27:43;;;;;;;18.88;11.85;;;-0.90;99.90;;;;;;5054226;28;20303;-80
2023/01/30 03:30:11;;;;;;;22.90;13.43;;;-0.90;99.90;;;;;;5065461;28;20295;-79
2023/01/30 03:32:47;;;;;;;21.23;12.05;;;-0.90;99.90;;;;;;5059257;28;20294;-79
2023/01/30 03:35:16;;;;;;;16.73;11.43;;;-0.90;99.90;;;;;;5065653;28;20237;-80
2023/01/30 03:37:43;;;;;;;17.63;10.10;;;-0.90;99.90;;;;;;5051838;28;20202;-80
2023/01/30 03:40:12;;;;;;;18.15;10.85;;;-1.00;99.90;;;;;;5070860;28;20234;-80
2023/01/30 03:42:39;;;;;;;19.08;9.50;;;-1.00;99.90;;;;;;5051345;28;20286;-80
2023/01/30 03:45:09;;;;;;;15.88;11.30;;;-1.00;99.90;;;;;;5062653;28;20291;-80
2023/01/30 03:47:38;;;;;;;19.30;10.43;;;-1.00;99.90;;;;;;5069549;28;20644;-80
2023/01/30 03:50:07;;;;;;;15.25;9.73;;;-1.10;99.90;;;;;;5074556;28;20224;-80
2023/01/30 03:52:36;;;;;;;23.17;14.75;;;-1.10;99.90;;;;;;5061787;28;20216;-80
2023/01/30 03:55:03;;;;;;;21.45;12.75;;;-1.10;99.90;;;;;;5076304;28;20201;-79
2023/01/30 03:57:30;;;;;;;14.57;9.05;;;-1.10;99.90;;;;;;5073457;28;20279;-79
2023/01/30 03:59:57;;;;;;;17.77;10.70;;;-1.10;99.90;;;;;;5071213;28;20635;-80
2023/01/30 04:02:27;;;;;;;17.50;11.40;;;-1.20;99.90;;;;;;5072566;28;20270;-80
2023/01/30 04:04:56;;;;;;;17.83;11.13;;;-1.20;99.90;;;;;;5057787;28;20242;-79
2023/01/30 04:07:26;;;;;;;17.15;12.05;;;-1.30;99.90;;;;;;5066127;28;20238;-80
2023/01/30 04:09:56;;;;;;;17.75;10.50;;;-1.30;99.90;;;;;;5077717;28;20289;-80
2023/01/30 04:12:23;;;;;;;20.00;11.80;;;-1.40;99.90;;;;;;5076598;28;20240;-79
2023/01/30 04:14:53;;;;;;;21.02;11.50;;;-1.50;99.90;;;;;;5073128;28;20229;-80
2023/01/30 04:17:20;;;;;;;19.67;11.27;;;-1.60;99.90;;;;;;5067699;28;20198;-80
2023/01/30 04:19:47;;;;;;;19.10;11.27;;;-1.60;99.90;;;;;;5058686;28;20290;-80
2023/01/30 04:22:17;;;;;;;20.05;11.82;;;-1.60;99.90;;;;;;5072303;28;20253;-80
2023/01/30 04:24:44;;;;;;;17.35;10.70;;;-1.70;99.90;;;;;;5059922;28;20263;-79
2023/01/30 04:27:12;;;;;;;21.13;12.43;;;-1.70;99.90;;;;;;5054192;28;20237;-79
2023/01/30 04:29:41;;;;;;;20.52;11.00;;;-1.80;99.90;;;;;;5060755;28;20262;-79
2023/01/30 04:32:11;;;;;;;18.98;11.50;;;-1.70;99.90;;;;;;5062372;28;20216;-80
2023/01/30 04:34:42;;;;;;;18.15;10.65;;;-1.80;99.90;;;;;;5060708;28;20761;-79
2023/01/30 04:37:09;;;;;;;21.75;10.57;;;-1.80;99.90;;;;;;5064842;28;20233;-79
2023/01/30 04:39:36;;;;;;;15.63;11.18;;;-1.90;99.90;;;;;;5071130;28;20234;-80
2023/01/30 04:42:03;;;;;;;15.02;10.35;;;-1.90;99.90;;;;;;5073339;28;20233;-79
2023/01/30 04:44:31;;;;;;;17.60;11.25;;;-1.90;99.90;;;;;;5063792;28;20278;-79
2023/01/30 04:46:58;;;;;;;23.20;10.35;;;-2.00;99.90;;;;;;5070124;28;20708;-80
2023/01/30 04:49:28;;;;;;;19.02;11.27;;;-2.00;99.90;;;;;;5074713;28;20225;-79
2023/01/30 04:51:58;;;;;;;16.48;9.73;;;-2.00;99.90;;;;;;5063153;28;20487;-79
2023/01/30 04:54:25;;;;;;;13.60;8.77;;;-2.00;99.90;;;;;;5063294;28;20249;-80
2023/01/30 04:56:51;;;;;;;16.13;11.15;;;-2.00;99.90;;;;;;5061401;28;20305;-79
2023/01/30 04:59:18;;;;;;;16.23;9.50;;;-1.90;99.90;;;;;;5069436;28;20641;-79
2023/01/30 05:01:47;;;;;;;14.88;9.90;;;-2.00;99.90;;;;;;5061322;28;20263;-79
2023/01/30 05:04:14;;;;;;;18.30;9.48;;;-2.00;99.90;;;;;;5051302;28;20242;-79
2023/01/30 05:06:40;;;;;;;8.98;6.85;;;-2.00;99.90;;;;;;5065456;28;20229;-80
2023/01/30 05:09:08;;;;;;;11.82;8.52;;;-2.00;99.90;;;;;;5086797;28;20225;-79
2023/01/30 05:11:35;;;;;;;15.80;9.48;;;-1.70;99.90;;;;;;5057438;28;20287;-79
2023/01/30 05:14:01;;;;;;;19.30;10.25;;;-1.60;99.90;;;;;;5061646;28;20291;-80
2023/01/30 05:16:29;;;;;;;15.02;8.52;;;-1.50;99.90;;;;;;5072690;28;20297;-79
2023/01/30 05:18:57;;;;;;;12.68;6.93;;;-1.50;99.90;;;;;;5071617;28;20297;-79
2023/01/30 05:21:27;;;;;;;11.55;8.00;;;-1.50;99.90;;;;;;5061999;28;20269;-79
2023/01/30 05:23:57;;;;;;;22.88;9.68;;;-1.50;99.90;;;;;;5062300;28;20536;-79
2023/01/30 05:26:25;;;;;;;13.45;8.70;;;-1.60;99.90;;;;;;5065239;28;20273;-79
2023/01/30 05:28:53;;;;;;;18.70;9.13;;;-1.60;99.90;;;;;;5067235;28;20763;-79
2023/01/30 05:31:20;;;;;;;19.35;10.18;;;-1.60;99.90;;;;;;5063335;28;20211;-79
2023/01/30 05:33:48;;;;;;;18.38;11.27;;;-1.70;99.90;;;;;;5066649;28;20206;-79
2023/01/30 05:36:19;;;;;;;19.33;11.27;;;-1.60;99.90;;;;;;5060972;28;20206;-79
2023/01/30 05:38:49;;;;;;;20.08;11.07;;;-1.60;99.90;;;;;;5062952;28;20630;-79
2023/01/30 05:41:17;;;;;;;18.02;10.27;;;-1.50;99.90;;;;;;5063230;28;20294;-79
2023/01/30 05:43:45;;;;;;;16.00;9.95;;;-1.50;99.90;;;;;;5060150;28;20639;-80
2023/01/30 05:46:13;;;;;;;13.20;8.65;;;-1.40;99.90;;;;;;5065222;28;20272;-79
2023/01/30 05:48:40;;;;;;;13.85;10.07;;;-1.30;99.90;;;;;;5058585;28;20218;-79
2023/01/30 05:51:16;;;;;;;12.57;7.88;;;-1.30;99.90;;;;;;5063396;28;20237;-79
2023/01/30 05:53:44;;;;;;;13.63;8.00;;;-1.20;99.90;;;;;;5057427;28;20493;-80
2023/01/30 05:56:11;;;;;;;15.15;9.57;;;-1.20;99.90;;;;;;5067722;28;20234;-79
2023/01/30 05:58:38;;;;;;;14.45;10.50;;;-1.20;99.90;;;;;;5060157;28;20238;-79
2023/01/30 06:01:16;;;;;;;21.95;9.57;;;-1.20;99.90;;;;;;5059996;28;20233;-79
2023/01/30 06:03:46;;;;;;;16.40;8.43;;;-1.20;99.90;;;;;;5065262;28;20233;-79
2023/01/30 06:06:13;;;;;;;10.20;7.22;;;-1.20;99.90;;;;;;5061373;28;20399;-79
2023/01/30 06:08:41;;;;;;;13.70;10.38;;;-1.20;99.90;;;;;;5061128;28;20253;-79
2023/01/30 06:11:11;;;;;;;16.63;8.95;;;-1.20;99.90;;;;;;5065643;28;20601;-79
2023/01/30 06:13:40;;;;;;;15.27;9.35;;;-1.10;99.90;;;;;;5060279;28;20649;-78
2023/01/30 06:16:08;;;;;;;14.82;7.88;;;-1.10;99.90;;;;;;5060928;28;20244;-79
2023/01/30 06:18:38;;;;;;;13.02;7.38;;;-1.10;99.90;;;;;;5060383;28;20306;-78
2023/01/30 06:21:05;;;;;;;12.93;9.73;;;-1.10;99.90;;;;;;5058556;28;20245;-78
2023/01/30 06:23:32;;;;;;;12.50;7.65;;;-1.00;99.90;;;;;;5059350;28;20291;-78
2023/01/30 06:26:00;;;;;;;12.32;7.43;;;-1.00;99.90;;;;;;5063164;28;20287;-78
2023/01/30 06:28:29;;;;;;;12.88;7.88;;;-1.00;99.90;;;;;;5057332;28;20238;-78
2023/01/30 06:30:55;;;;;;;16.80;11.48;;;-1.00;99.90;;;;;;5066830;28;20237;-78
2023/01/30 06:33:22;;;;;;;14.55;8.73;;;-1.10;99.90;;;;;;5064138;28;20233;-79
2023/01/30 06:35:51;;;;;;;10.75;7.07;;;-1.10;99.90;;;;;;5058050;28;20233;-79
2023/01/30 06:38:21;;;;;;;11.65;7.55;;;-1.10;99.90;;;;;;5064816;28;20234;-79
2023/01/30 06:40:50;;;;;;;13.43;7.68;;;-1.20;99.90;;;;;;5062633;28;20213;-78
2023/01/30 06:43:17;;;;;;;9.88;6.80;;;-1.20;99.90;;;;;;5065398;28;20198;-79
2023/01/30 06:45:47;;;;;;;11.27;7.68;;;-1.30;99.90;;;;;;5061722;28;20238;-78
2023/01/30 06:48:14;;;;;;;10.75;7.40;;;-1.30;99.90;;;;;;5071107;28;20302;-79
2023/01/30 06:50:41;;;;;;;13.05;9.30;;;-1.30;99.90;;;;;;5046174;28;20841;-78
2023/01/30 06:53:09;;;;;;;12.48;8.57;;;-1.30;99.90;;;;;;5061661;28;20260;-80
2023/01/30 06:55:37;;;;;;;9.70;7.20;;;-1.20;99.90;;;;;;5055182;28;20208;-79
2023/01/30 06:58:06;;;;;;;10.05;6.45;;;-1.20;99.90;;;;;;5062819;28;20206;-78
2023/01/30 07:00:38;;;;;;;9.50;6.40;;;-1.10;99.90;;;;;;5053721;28;20292;-79
2023/01/30 07:03:09;;;;;;;11.50;8.50;;;-1.10;99.90;;;;;;5059486;28;20208;-78
2023/01/30 07:05:37;;;;;;;9.15;5.65;;;-1.10;99.90;;;;;;5049673;28;20291;-78
2023/01/30 07:08:04;;;;;;;10.45;7.03;;;-1.10;99.90;;;;;;5061834;28;20238;-78
2023/01/30 07:10:31;;;;;;;13.60;6.18;;;-1.00;99.90;;;;;;5059362;28;20257;-78
2023/01/30 07:12:58;;;;;;;8.93;6.15;;;-0.90;99.90;;;;;;5060871;28;20686;-79
2023/01/30 07:15:25;;;;;;;9.38;5.85;;;-0.70;99.90;;;;;;5059984;28;20261;-78
2023/01/30 07:17:55;;;;;;;8.00;5.00;;;-0.70;99.90;;;;;;5054986;28;20725;-79
2023/01/30 07:20:23;;;;;;;10.25;5.40;;;-0.60;99.90;;;;;;5056838;28;20206;-78
2023/01/30 07:22:51;;;;;;;12.25;6.00;;;-0.60;99.90;;;;;;5055944;28;20242;-79
2023/01/30 07:25:18;;;;;;;6.53;4.13;;;-0.60;99.90;;;;;;5054485;28;20241;-78
2023/01/30 07:27:51;;;;;;;9.45;4.43;;;-0.60;99.90;;;;;;5065514;28;20238;-79
2023/01/30 07:30:22;;;;;;;7.78;5.35;;;-0.60;99.90;;;;;;5078020;28;20217;-79
2023/01/30 07:32:53;;;;;;;8.30;5.95;;;-0.60;99.90;;;;;;5072624;28;20220;-78
2023/01/30 07:35:21;;;;;;;9.68;4.35;;;-0.60;99.90;;;;;;5057491;28;20212;-78
2023/01/30 07:37:49;;;;;;;8.00;4.57;;;-0.70;99.90;;;;;;5058482;28;20650;-78
2023/01/30 07:40:20;;;;;;;7.85;6.28;;;-0.60;99.90;;;;;;5060106;28;20229;-78
2023/01/30 07:42:57;;;;;;;7.95;4.45;;;-0.60;99.90;;;;;;5050817;28;20214;-78
2023/01/30 07:45:26;;;;;;;6.47;5.35;;;-0.50;99.90;;;;;;5055701;28;20646;-77
2023/01/30 07:47:54;;;;;;;10.00;7.22;;;-0.40;99.90;;;;;;5054470;28;20505;-78
2023/01/30 07:50:25;;;;;;;4.45;3.58;;;-0.40;99.90;;;;;;5053759;28;20254;-78
2023/01/30 07:52:54;;;;;;;5.80;4.13;;;-0.30;99.90;;;;;;5052671;28;20422;-78
2023/01/30 07:55:23;;;;;;;4.45;3.70;;;-0.20;99.90;;;;;;5057560;28;20471;-77
2023/01/30 07:57:50;;;;;;;7.95;4.00;;;-0.10;99.90;;;;;;5057637;28;20958;-78
2023/01/30 08:00:18;;;;;;;5.38;3.60;;;0.00;99.90;;;;;;5059792;28;20202;-78
2023/01/30 08:02:45;;;;;;;5.10;3.58;;;0.00;99.90;;;;;;5047088;28;20249;-78
2023/01/30 08:05:15;;;;;;;3.63;2.50;;;0.10;99.90;;;;;;5055532;28;20665;-78
2023/01/30 08:07:42;;;;;;;2.95;2.55;;;0.20;99.90;;;;;;5053714;28;20551;-78
2023/01/30 08:10:11;;;;;;;3.13;2.67;;;0.20;99.90;;;;;;5058267;28;20688;-78
2023/01/30 08:12:43;;;;;;;9.37;5.13;;;0.30;99.90;;;;;;5056933;28;20524;-78
2023/01/30 08:15:11;;;;;;;6.88;5.18;;;0.50;99.90;;;;;;5059612;28;20786;-78
2023/01/30 08:17:38;;;;;;;11.15;4.75;;;0.50;99.90;;;;;;5053175;28;20297;-78
2023/01/30 08:20:07;;;;;;;8.73;4.35;;;0.60;99.90;;;;;;5055431;28;20233;-78
2023/01/30 08:22:34;;;;;;;10.27;5.03;;;0.70;99.90;;;;;;5048964;28;20206;-78
2023/01/30 08:25:01;;;;;;;6.07;4.67;;;0.80;99.90;;;;;;5057466;28;20913;-78
2023/01/30 08:27:29;;;;;;;10.18;7.03;;;0.90;99.90;;;;;;5063485;28;20585;-78
2023/01/30 08:29:56;;;;;;;6.10;5.47;;;0.90;99.90;;;;;;5056542;28;20461;-78
2023/01/30 08:32:24;;;;;;;6.83;4.10;;;1.00;99.90;;;;;;5049393;28;20735;-78
2023/01/30 08:34:51;;;;;;;8.40;4.97;;;1.10;99.90;;;;;;5054800;28;20542;-78
2023/01/30 08:37:18;;;;;;;10.80;6.43;;;1.10;99.90;;;;;;5057311;28;20475;-78
2023/01/30 08:39:45;;;;;;;10.47;5.67;;;1.10;99.90;;;;;;5050471;28;20846;-78
2023/01/30 08:42:14;;;;;;;5.90;4.60;;;1.10;99.90;;;;;;5058573;28;20709;-78
2023/01/30 08:44:42;;;;;;;8.40;5.80;;;1.10;99.90;;;;;;5048492;28;20216;-78
2023/01/30 08:47:11;;;;;;;7.50;4.70;;;1.20;99.90;;;;;;5060955;28;20474;-78
2023/01/30 08:49:38;;;;;;;8.27;4.87;;;1.20;99.90;;;;;;5059178;28;20534;-78
2023/01/30 08:52:05;;;;;;;5.90;3.80;;;1.30;99.90;;;;;;5061727;28;20484;-78
2023/01/30 08:54:34;;;;;;;7.43;4.10;;;1.40;99.90;;;;;;5054800;28;20565;-78
2023/01/30 08:57:02;;;;;;;4.10;2.90;;;1.40;99.90;;;;;;5056520;28;20462;-78
2023/01/30 08:59:31;;;;;;;2.90;2.60;;;1.40;99.90;;;;;;5062801;28;20514;-78
2023/01/30 09:01:59;;;;;;;3.83;2.80;;;1.50;99.90;;;;;;5060490;28;20449;-78
2023/01/30 09:04:28;;;;;;;7.30;4.00;;;1.50;99.90;;;;;;5060821;28;20979;-78
2023/01/30 09:06:56;;;;;;;2.03;1.50;;;1.50;99.90;;;;;;5066648;28;20479;-78
2023/01/30 09:09:25;;;;;;;2.80;1.77;;;1.60;99.90;;;;;;5062082;28;20467;-78
2023/01/30 09:11:52;;;;;;;5.93;3.40;;;1.60;99.90;;;;;;5058791;28;20452;-78
2023/01/30 09:14:22;;;;;;;4.53;2.20;;;1.60;99.90;;;;;;5069005;28;20467;-78
2023/01/30 09:16:54;;;;;;;4.43;3.13;;;1.80;99.90;;;;;;5061479;28;20472;-80
2023/01/30 09:19:22;;;;;;;2.00;1.70;;;1.90;99.90;;;;;;5064441;28;20543;-80
2023/01/30 09:21:49;;;;;;;3.83;2.00;;;1.90;99.90;;;;;;5063573;28;20517;-80
2023/01/30 09:24:16;;;;;;;2.90;2.13;;;2.00;99.90;;;;;;5065668;28;20624;-80
2023/01/30 09:26:46;;;;;;;2.67;2.43;;;2.00;99.90;;;;;;5062087;28;21036;-80
2023/01/30 09:29:13;;;;;;;3.77;1.80;;;2.00;99.90;;;;;;5071188;28;20815;-80
2023/01/30 09:31:41;;;;;;;3.77;2.57;;;2.00;99.90;;;;;;5062437;28;20481;-80
2023/01/30 09:34:10;;;;;;;4.97;3.57;;;2.10;99.90;;;;;;5064819;28;20452;-80
2023/01/30 09:36:39;;;;;;;3.40;1.90;;;2.10;99.90;;;;;;5053645;28;20489;-80
2023/01/30 09:39:06;;;;;;;3.33;2.43;;;2.00;99.90;;;;;;5058184;28;20467;-80
2023/01/30 09:41:58;;;;;;;3.60;1.77;;;2.10;99.90;;;;;;5066448;28;20906;-81
2023/01/30 09:44:57;;;;;;;2.40;2.20;;;2.10;99.90;;;;;;5061625;28;20463;-81
2023/01/30 09:47:34;;;;;;;3.13;2.30;;;2.20;99.90;;;;;;5063478;28;20532;-80
2023/01/30 09:50:12;;;;;;;3.40;2.00;;;2.20;99.90;;;;;;5064173;28;20527;-80
2023/01/30 09:52:55;;;;;;;2.70;1.90;;;2.30;99.90;;;;;;5054148;28;20502;-80
2023/01/30 09:55:28;;;;;;;5.00;1.90;;;2.40;99.90;;;;;;5065657;28;20491;-80
2023/01/30 09:57:58;;;;;;;2.43;2.07;;;2.40;99.90;;;;;;5058907;28;20896;-80
2023/01/30 10:00:32;;;;;;;4.47;1.90;;;2.50;99.90;;;;;;5059144;28;20448;-81
2023/01/30 10:03:04;;;;;;;1.73;1.53;;;2.40;99.90;;;;;;5058201;28;20456;-81
2023/01/30 10:05:40;;;;;;;2.80;1.77;;;2.50;99.90;;;;;;5059937;28;20553;-80
2023/01/30 10:08:30;;;;;;;2.83;1.50;;;2.50;99.90;;;;;;5064174;28;20471;-80
2023/01/30 10:11:05;;;;;;;1.73;1.33;;;2.70;99.90;;;;;;5064012;28;20569;-80
2023/01/30 10:13:57;;;;;;;2.17;1.20;;;2.80;99.90;;;;;;5061686;28;20522;-80
2023/01/30 10:16:28;;;;;;;1.73;1.10;;;2.90;99.90;;;;;;5059939;28;20476;-81
2023/01/30 10:19:11;;;;;;;2.60;1.47;;;3.00;99.90;;;;;;5048569;28;20455;-80
2023/01/30 10:21:47;;;;;;;3.53;1.93;;;3.00;99.90;;;;;;5061017;28;20464;-81
2023/01/30 10:24:45;;;;;;;3.27;1.50;;;3.00;99.90;;;;;;5068264;28;20612;-81
2023/01/30 10:27:15;;;;;;;2.00;1.47;;;3.10;99.90;;;;;;5052906;28;20483;-81
2023/01/30 10:29:47;;;;;;;2.30;1.37;;;3.20;99.90;;;;;;5067613;28;20526;-81
2023/01/30 10:32:18;;;;;;;1.60;1.13;;;3.20;99.90;;;;;;5065166;28;20924;-81
2023/01/30 10:34:50;;;;;;;2.03;1.50;;;3.30;99.90;;;;;;5065732;28;20875;-81
2023/01/30 10:37:24;;;;;;;3.93;1.80;;;3.40;99.90;;;;;;5069523;28;20790;-79
2023/01/30 10:40:03;;;;;;;1.47;0.90;;;3.40;99.90;;;;;;5079998;28;20540;-79
2023/01/30 10:42:36;;;;;;;2.70;1.33;;;3.50;99.90;;;;;;5058302;28;20476;-79
2023/01/30 10:45:12;;;;;;;0.80;0.80;;;3.40;99.90;;;;;;5070463;28;20963;-79
2023/01/30 10:48:02;;;;;;;2.43;1.40;;;3.30;99.90;;;;;;5066074;28;20451;-79
2023/01/30 10:50:36;;;;;;;1.43;1.00;;;3.20;99.90;;;;;;5060730;28;20488;-79
2023/01/30 10:53:12;;;;;;;2.27;1.10;;;3.10;99.90;;;;;;5059814;28;20904;-79
2023/01/30 10:55:45;;;;;;;2.13;1.10;;;3.10;99.90;;;;;;5059546;28;20536;-79
2023/01/30 10:58:22;;;;;;;2.30;1.57;;;3.10;99.90;;;;;;5061162;28;20476;-79
2023/01/30 11:00:59;;;;;;;1.00;0.70;;;3.00;99.90;;;;;;5060213;28;20455;-79
2023/01/30 11:03:33;;;;;;;0.87;0.70;;;3.00;99.90;;;;;;5062600;28;20472;-79
2023/01/30 11:06:06;;;;;;;3.40;2.50;;;3.00;99.90;;;;;;5053159;28;21028;-79
2023/01/30 11:08:35;;;;;;;12.33;3.93;;;2.90;99.90;;;;;;5058570;28;20609;-79
2023/01/30 11:11:26;;;;;;;7.63;2.47;;;2.90;99.90;;;;;;5061850;28;20745;-79
2023/01/30 11:14:06;;;;;;;5.77;3.17;;;2.90;99.90;;;;;;5055822;28;20471;-79
2023/01/30 11:16:43;;;;;;;4.57;2.87;;;2.90;99.90;;;;;;5064357;28;20663;-79
2023/01/30 11:19:12;;;;;;;1.83;1.20;;;2.90;99.90;;;;;;5071485;28;20445;-79
2023/01/30 11:21:41;;;;;;;5.80;2.30;;;3.00;99.90;;;;;;5060986;28;20451;-79
2023/01/30 11:24:15;;;;;;;3.57;1.43;;;3.00;99.90;;;;;;5062509;28;20563;-79
2023/01/30 11:26:44;;;;;;;3.40;2.40;;;3.10;99.90;;;;;;5061680;28;20580;-79
2023/01/30 11:29:27;;;;;;;2.60;1.20;;;3.30;99.90;;;;;;5062058;28;20491;-79
2023/01/30 11:31:57;;;;;;;2.83;2.07;;;3.40;99.90;;;;;;5062158;28;20508;-79
2023/01/30 11:34:27;;;;;;;2.53;1.90;;;3.40;99.90;;;;;;5062686;28;20463;-80
2023/01/30 11:36:55;;;;;;;1.93;1.30;;;3.40;99.90;;;;;;5066822;28;20452;-78
2023/01/30 11:39:28;;;;;;;1.60;1.17;;;3.40;99.90;;;;;;5062728;28;20471;-79
2023/01/30 11:42:03;;;;;;;2.60;1.00;;;3.40;99.90;;;;;;5061220;28;20925;-80
2023/01/30 11:44:32;;;;;;;1.70;0.90;;;3.50;99.90;;;;;;5059101;28;20467;-79
2023/01/30 11:47:01;;;;;;;1.43;0.93;;;3.60;99.90;;;;;;5061646;28;20903;-80
2023/01/30 11:49:38;;;;;;;1.10;1.00;;;3.60;99.90;;;;;;5062869;28;20537;-79
2023/01/30 11:52:07;;;;;;;1.50;0.73;;;3.60;99.90;;;;;;5057574;28;20879;-79
2023/01/30 11:54:37;;;;;;;1.13;0.90;;;3.70;99.90;;;;;;5058425;28;20546;-79
2023/01/30 11:57:10;;;;;;;1.80;1.00;;;3.70;99.90;;;;;;5061870;28;20467;-79
2023/01/30 11:59:43;;;;;;;2.40;1.43;;;3.80;99.90;;;;;;5060747;28;20476;-79
2023/01/30 12:02:17;;;;;;;3.73;1.47;;;3.80;99.90;;;;;;5062809;28;20492;-79
2023/01/30 12:04:46;;;;;;;1.03;0.53;;;3.80;99.90;;;;;;5062119;28;20916;-79
2023/01/30 12:07:19;;;;;;;0.70;0.53;;;3.80;99.90;;;;;;5062027;28;20468;-78
2023/01/30 12:09:49;;;;;;;1.70;0.63;;;3.90;99.90;;;;;;5057820;28;20554;-79
2023/01/30 12:12:32;;;;;;;1.90;1.20;;;3.90;99.90;;;;;;5062415;28;20568;-79
2023/01/30 12:15:13;;;;;;;0.93;0.80;;;3.90;99.90;;;;;;5055629;28;20488;-80
2023/01/30 12:17:47;;;;;;;2.37;0.70;;;3.90;99.90;;;;;;5056659;28;20448;-79
2023/01/30 12:20:23;;;;;;;1.27;0.70;;;3.90;99.90;;;;;;5061268;28;20545;-79
2023/01/30 12:23:00;;;;;;;0.87;0.70;;;3.80;99.90;;;;;;5062498;28;20568;-79
2023/01/30 12:25:33;;;;;;;1.10;0.50;;;3.80;99.90;;;;;;5063368;28;20494;-79
2023/01/30 12:28:03;;;;;;;0.60;0.40;;;3.80;99.90;;;;;;5063312;28;20556;-79
2023/01/30 12:30:36;;;;;;;2.30;0.80;;;3.80;99.90;;;;;;5070339;28;20514;-79
2023/01/30 12:33:06;;;;;;;1.63;0.50;;;3.80;99.90;;;;;;5072957;28;20465;-79
2023/01/30 12:35:50;;;;;;;1.17;1.07;;;3.80;99.90;;;;;;5056445;28;20711;-79
2023/01/30 12:38:31;;;;;;;0.60;0.43;;;3.70;99.90;;;;;;5073703;28;20459;-79
2023/01/30 12:41:12;;;;;;;0.80;0.57;;;3.70;99.90;;;;;;5071836;28;20467;-79
2023/01/30 12:44:05;;;;;;;1.50;0.60;;;3.70;99.90;;;;;;5051072;28;20476;-79
2023/01/30 12:46:51;;;;;;;0.90;0.50;;;3.70;99.90;;;;;;5058232;28;20447;-79
2023/01/30 12:49:49;;;;;;;1.00;0.70;;;3.80;99.90;;;;;;5062261;28;20493;-79
2023/01/30 12:52:43;;;;;;;1.43;0.80;;;3.60;99.90;;;;;;5079252;28;20522;-79
2023/01/30 12:55:24;;;;;;;1.30;0.70;;;3.50;99.90;;;;;;5080318;28;20444;-79
2023/01/30 12:57:56;;;;;;;1.60;0.70;;;3.40;99.90;;;;;;5073440;28;20986;-79
2023/01/30 13:00:48;;;;;;;1.17;0.70;;;3.30;99.90;;;;;;5067813;28;20944;-79
2023/01/30 13:03:25;;;;;;;2.60;1.10;;;3.10;99.90;;;;;;5061906;28;20479;-79
2023/01/30 13:06:07;;;;;;;2.20;1.10;;;3.00;99.90;;;;;;5058796;28;20495;-79
2023/01/30 13:08:54;;;;;;;3.73;1.00;;;2.80;99.90;;;;;;5070192;28;20562;-79